Potter, Nebraska
Current Conditions -  °F | °C
As of 5:35 AM on Wednesday 26 Nov 2014 (Local Time) from KIBM Reporting Station
Light Snow Light Snow  
Wind Chill: -9°   Ceiling: 1200
Heat Index: -3°   Visibility: 1.7mi
Dew Point: -4°   Wind: 10mph
Humidity: 94%   Direction: 310°NW
Pressure: 30.15"   Gusts: NA
Location:  41.22°N, 103.32°W
Report Text: KIBM 261235Z AUTO 31009KT 1 3/4SM -SN SCT007 BKN012 OVC023 M03/M04 A3015 RMK AO2 T10321040
Loading
Personal Weather Stations






























Interactive Weather Map New forecast layout! Learn more

10-Day Weather Forecast

Advertisements
Track Severe Weather on mobile